sensor_id;sensor_type;location;lat;lon;timestamp;temperature;humidity
57719;DHT22;43561;50.090;18.522;2023-03-20T00:00:56;6.90;98.20
57719;DHT22;43561;50.090;18.522;2023-03-20T00:10:58;6.70;99.60
57719;DHT22;43561;50.090;18.522;2023-03-20T00:21:02;6.80;99.30
57719;DHT22;43561;50.090;18.522;2023-03-20T00:31:10;6.90;99.10
57719;DHT22;43561;50.090;18.522;2023-03-20T00:51:22;7.10;98.80
57719;DHT22;43561;50.090;18.522;2023-03-20T01:01:25;7.00;98.90
57719;DHT22;43561;50.090;18.522;2023-03-20T01:11:27;7.00;99.20
57719;DHT22;43561;50.090;18.522;2023-03-20T01:21:29;7.00;99.80
57719;DHT22;43561;50.090;18.522;2023-03-20T01:31:31;7.10;99.10
57719;DHT22;43561;50.090;18.522;2023-03-20T01:41:33;7.10;98.90
57719;DHT22;43561;50.090;18.522;2023-03-20T01:51:35;7.20;98.40
57719;DHT22;43561;50.090;18.522;2023-03-20T02:01:44;7.30;98.00
57719;DHT22;43561;50.090;18.522;2023-03-20T02:11:47;7.20;98.00
57719;DHT22;43561;50.090;18.522;2023-03-20T03:03:47;7.40;96.60
57719;DHT22;43561;50.090;18.522;2023-03-20T03:13:53;7.40;96.50
57719;DHT22;43561;50.090;18.522;2023-03-20T03:23:56;7.30;97.00
57719;DHT22;43561;50.090;18.522;2023-03-20T03:34:00;7.10;97.80
57719;DHT22;43561;50.090;18.522;2023-03-20T03:44:16;7.10;97.80
57719;DHT22;43561;50.090;18.522;2023-03-20T03:54:26;7.00;97.90
57719;DHT22;43561;50.090;18.522;2023-03-20T04:04:52;7.00;97.50
57719;DHT22;43561;50.090;18.522;2023-03-20T04:14:55;6.90;97.80
57719;DHT22;43561;50.090;18.522;2023-03-20T04:24:59;6.80;98.60
57719;DHT22;43561;50.090;18.522;2023-03-20T04:35:02;6.70;99.50
57719;DHT22;43561;50.090;18.522;2023-03-20T04:45:21;6.70;99.80
57719;DHT22;43561;50.090;18.522;2023-03-20T04:55:24;6.70;99.90
57719;DHT22;43561;50.090;18.522;2023-03-20T05:05:28;6.60;99.90
57719;DHT22;43561;50.090;18.522;2023-03-20T05:15:30;6.70;99.90
57719;DHT22;43561;50.090;18.522;2023-03-20T05:25:54;6.80;99.90
57719;DHT22;43561;50.090;18.522;2023-03-20T05:35:55;6.90;99.90
57719;DHT22;43561;50.090;18.522;2023-03-20T05:46:36;7.10;99.90
57719;DHT22;43561;50.090;18.522;2023-03-20T05:57:07;7.10;99.90
57719;DHT22;43561;50.090;18.522;2023-03-20T06:07:27;7.30;99.90
57719;DHT22;43561;50.090;18.522;2023-03-20T06:17:40;7.40;99.90
57719;DHT22;43561;50.090;18.522;2023-03-20T06:27:42;7.60;99.90
57719;DHT22;43561;50.090;18.522;2023-03-20T06:37:44;7.70;99.90
57719;DHT22;43561;50.090;18.522;2023-03-20T06:47:52;7.60;99.90
57719;DHT22;43561;50.090;18.522;2023-03-20T06:57:54;7.80;99.90
57719;DHT22;43561;50.090;18.522;2023-03-20T07:07:56;8.00;99.90
57719;DHT22;43561;50.090;18.522;2023-03-20T07:18:00;8.40;99.90
57719;DHT22;43561;50.090;18.522;2023-03-20T07:28:02;8.50;99.90
57719;DHT22;43561;50.090;18.522;2023-03-20T07:38:04;8.50;99.90
57719;DHT22;43561;50.090;18.522;2023-03-20T07:48:11;8.40;99.90
57719;DHT22;43561;50.090;18.522;2023-03-20T07:58:13;8.50;99.90
57719;DHT22;43561;50.090;18.522;2023-03-20T08:08:15;8.60;99.90
57719;DHT22;43561;50.090;18.522;2023-03-20T08:18:18;8.70;99.90
57719;DHT22;43561;50.090;18.522;2023-03-20T08:28:21;8.90;99.90
57719;DHT22;43561;50.090;18.522;2023-03-20T08:38:41;9.00;99.90
57719;DHT22;43561;50.090;18.522;2023-03-20T08:48:44;9.20;99.90
57719;DHT22;43561;50.090;18.522;2023-03-20T08:58:46;9.60;99.90
57719;DHT22;43561;50.090;18.522;2023-03-20T09:08:48;9.80;99.90
57719;DHT22;43561;50.090;18.522;2023-03-20T09:18:50;10.90;99.90
57719;DHT22;43561;50.090;18.522;2023-03-20T09:28:52;12.40;99.90
57719;DHT22;43561;50.090;18.522;2023-03-20T09:38:54;12.10;99.90
57719;DHT22;43561;50.090;18.522;2023-03-20T09:59:17;11.30;99.90
57719;DHT22;43561;50.090;18.522;2023-03-20T10:09:23;11.20;99.90
57719;DHT22;43561;50.090;18.522;2023-03-20T10:20:00;11.30;99.90
57719;DHT22;43561;50.090;18.522;2023-03-20T10:41:25;11.90;99.90
57719;DHT22;43561;50.090;18.522;2023-03-20T10:51:39;12.70;99.90
57719;DHT22;43561;50.090;18.522;2023-03-20T11:01:43;13.70;99.90
57719;DHT22;43561;50.090;18.522;2023-03-20T11:11:46;14.00;99.90
57719;DHT22;43561;50.090;18.522;2023-03-20T11:21:57;13.30;99.90
57719;DHT22;43561;50.090;18.522;2023-03-20T11:42:29;13.60;99.90
57719;DHT22;43561;50.090;18.522;2023-03-20T11:52:34;13.90;98.30
57719;DHT22;43561;50.090;18.522;2023-03-20T12:02:39;14.10;97.80
57719;DHT22;43561;50.090;18.522;2023-03-20T12:23:05;15.10;93.70
57719;DHT22;43561;50.090;18.522;2023-03-20T12:44:12;14.30;93.80
57719;DHT22;43561;50.090;18.522;2023-03-20T13:36:07;14.10;97.70
57719;DHT22;43561;50.090;18.522;2023-03-20T13:46:21;13.50;99.90
57719;DHT22;43561;50.090;18.522;2023-03-20T14:17:26;14.20;99.90
57719;DHT22;43561;50.090;18.522;2023-03-20T14:27:34;13.70;99.90
57719;DHT22;43561;50.090;18.522;2023-03-20T14:48:43;13.90;99.90
57719;DHT22;43561;50.090;18.522;2023-03-20T15:08:59;13.70;99.90
57719;DHT22;43561;50.090;18.522;2023-03-20T15:19:16;13.90;99.90
57719;DHT22;43561;50.090;18.522;2023-03-20T15:29:18;13.50;99.90
57719;DHT22;43561;50.090;18.522;2023-03-20T15:39:26;13.50;99.70
57719;DHT22;43561;50.090;18.522;2023-03-20T15:49:31;13.70;99.90
57719;DHT22;43561;50.090;18.522;2023-03-20T15:59:33;13.50;99.50
57719;DHT22;43561;50.090;18.522;2023-03-20T16:09:42;13.40;99.80
57719;DHT22;43561;50.090;18.522;2023-03-20T16:19:44;13.50;99.90
57719;DHT22;43561;50.090;18.522;2023-03-20T16:29:50;13.40;99.90
57719;DHT22;43561;50.090;18.522;2023-03-20T16:50:22;12.70;99.90
57719;DHT22;43561;50.090;18.522;2023-03-20T17:01:00;12.40;99.90
57719;DHT22;43561;50.090;18.522;2023-03-20T17:11:09;12.10;99.90
57719;DHT22;43561;50.090;18.522;2023-03-20T17:21:13;11.50;99.90
57719;DHT22;43561;50.090;18.522;2023-03-20T17:31:16;11.20;99.90
57719;DHT22;43561;50.090;18.522;2023-03-20T17:41:19;11.10;99.90
57719;DHT22;43561;50.090;18.522;2023-03-20T17:51:21;10.20;99.90
57719;DHT22;43561;50.090;18.522;2023-03-20T18:01:23;9.80;99.90
57719;DHT22;43561;50.090;18.522;2023-03-20T18:11:26;10.00;99.90
57719;DHT22;43561;50.090;18.522;2023-03-20T18:21:28;10.10;99.90
57719;DHT22;43561;50.090;18.522;2023-03-20T18:31:30;10.10;99.90
57719;DHT22;43561;50.090;18.522;2023-03-20T18:41:33;10.10;99.90
57719;DHT22;43561;50.090;18.522;2023-03-20T18:51:34;9.90;99.90
57719;DHT22;43561;50.090;18.522;2023-03-20T19:01:36;9.60;99.90
57719;DHT22;43561;50.090;18.522;2023-03-20T19:11:38;9.70;99.90
57719;DHT22;43561;50.090;18.522;2023-03-20T19:21:40;9.70;99.90
57719;DHT22;43561;50.090;18.522;2023-03-20T19:31:42;9.60;99.90
57719;DHT22;43561;50.090;18.522;2023-03-20T19:41:44;9.60;99.90
57719;DHT22;43561;50.090;18.522;2023-03-20T19:51:47;9.50;99.90
57719;DHT22;43561;50.090;18.522;2023-03-20T20:01:49;9.50;99.90
57719;DHT22;43561;50.090;18.522;2023-03-20T20:11:52;9.30;99.90
57719;DHT22;43561;50.090;18.522;2023-03-20T20:21:54;9.40;99.90
57719;DHT22;43561;50.090;18.522;2023-03-20T20:32:18;9.40;99.90
57719;DHT22;43561;50.090;18.522;2023-03-20T20:42:20;9.40;99.90
57719;DHT22;43561;50.090;18.522;2023-03-20T20:52:22;9.40;99.90
57719;DHT22;43561;50.090;18.522;2023-03-20T21:02:25;9.40;99.90
57719;DHT22;43561;50.090;18.522;2023-03-20T21:12:28;9.20;99.90
57719;DHT22;43561;50.090;18.522;2023-03-20T21:22:40;9.00;99.90
57719;DHT22;43561;50.090;18.522;2023-03-20T21:32:44;8.90;99.90
57719;DHT22;43561;50.090;18.522;2023-03-20T21:42:46;8.80;99.90
57719;DHT22;43561;50.090;18.522;2023-03-20T21:52:48;8.80;99.90
57719;DHT22;43561;50.090;18.522;2023-03-20T22:03:09;8.90;99.90
57719;DHT22;43561;50.090;18.522;2023-03-20T22:13:31;8.80;99.90
57719;DHT22;43561;50.090;18.522;2023-03-20T22:23:53;8.70;99.90
57719;DHT22;43561;50.090;18.522;2023-03-20T22:34:18;8.70;99.90
57719;DHT22;43561;50.090;18.522;2023-03-20T22:44:41;8.60;99.90
57719;DHT22;43561;50.090;18.522;2023-03-20T22:55:03;8.50;99.90
57719;DHT22;43561;50.090;18.522;2023-03-20T23:05:05;8.60;99.90
57719;DHT22;43561;50.090;18.522;2023-03-20T23:15:08;8.50;99.90
57719;DHT22;43561;50.090;18.522;2023-03-20T23:25:10;8.50;99.90
57719;DHT22;43561;50.090;18.522;2023-03-20T23:35:24;8.60;99.90
57719;DHT22;43561;50.090;18.522;2023-03-20T23:45:26;8.60;99.90
57719;DHT22;43561;50.090;18.522;2023-03-20T23:55:28;8.50;99.90
